Tokyo International Airport
RJTT : now visible

Airfield :











YOU CAN JOIN US ON...

 
LOGIN :

Register | Disclaimer

   EN    FR    IT 

 









Legend :    VFR   Marginal VFR   IFR   Intensive IFR   Very Intensive IFR
Visi :
Ceiling :
>= 8 km
>= 3000ft
5 to 8 km
1000 to 3000 ft
1500m to 5 km
500 to 1000 ft
800 to 1500m
200 to 500 ft
< 800m
< 200 ft
Symbols :   Thunderstorms  Fog  Heavy snow  Heavy precipitations  Wind > 20 kt






- Airport Elevation : 35 ft
- IATA code : HND


RJTT - Tokyo International

CURRENT METAR :
  • 280200Z 10007KT 9999 FEW020 SCT060 BKN/// 22/16 Q1007 NOSIG

EXPIRED METARs :
  • 280130Z 09006KT 9999 FEW020 BKN050 BKN080 21/15 Q1007 NOSIG
  • 280100Z 09007KT 9999 FEW020 BKN050 BKN070 21/15 Q1007 NOSIG
  • 280030Z 09008KT 9999 FEW020 BKN050 BKN070 21/16 Q1007 NOSIG
  • 280000Z 09008KT 9999 FEW020 BKN050 BKN070 20/16 Q1007 NOSIG
  • 272330Z 08009KT 9999 FEW030 BKN070 BKN/// 20/15 Q1007 NOSIG

TAF TAF RJTT
Valid from the 28 at 00:00 until the 29 at 06:00 UTC


272305Z 2800/2906 10006KT 9999 FEW030 BKN050
BECMG 2805/2807 18010KT
BECMG 2812/2815 12006KT
BECMG 2815/2818 04008KT
BECMG 2900/2903 18012KT
RJJJ FIR / Asia



MET'MAP, your aeronautical weather chart ! - Copyright ORBIFLY December 2007 - Disclaimer

ORBIFLY MET'MAP TEAM :

Programming & Development : Alexandra Zaïnal
Concept & original design : Baudouin d'Aumeries
Assistance for programming : Marc-Olivier Méhu
Technical & hardware support : Manuel Goepfert

Contact : metmap@orbifly.com




SOURCES & CREDITS :

   NOAA       Earth
Advisory